createdAt,value
2022-11-24T00:01:08.919Z,1.59
2022-11-24T00:03:41.236Z,1.56
2022-11-24T00:06:15.025Z,1.55
2022-11-24T00:08:47.919Z,1.55
2022-11-24T00:11:21.405Z,1.55
2022-11-24T00:13:53.841Z,1.53
2022-11-24T00:16:28.444Z,1.55
2022-11-24T00:19:02.342Z,1.60
2022-11-24T00:21:34.580Z,1.62
2022-11-24T00:24:06.847Z,1.64
2022-11-24T00:26:39.181Z,1.66
2022-11-24T00:29:12.494Z,1.63
2022-11-24T00:31:44.752Z,1.57
2022-11-24T00:34:17.145Z,1.50
2022-11-24T00:36:49.135Z,1.41
2022-11-24T00:39:21.504Z,1.34
2022-11-24T00:41:53.393Z,1.32
2022-11-24T00:44:25.333Z,1.35
2022-11-24T00:46:57.316Z,1.37
2022-11-24T00:49:29.334Z,1.39
2022-11-24T00:52:01.237Z,1.42
2022-11-24T00:54:33.275Z,1.44
2022-11-24T00:57:05.444Z,1.45
2022-11-24T00:59:37.417Z,1.45
2022-11-24T01:02:09.392Z,1.43
2022-11-24T01:04:41.418Z,1.39
2022-11-24T01:07:13.437Z,1.34
2022-11-24T01:09:45.952Z,1.31
2022-11-24T01:12:17.833Z,1.29
2022-11-24T01:14:49.697Z,1.27
2022-11-24T01:17:21.801Z,1.26
2022-11-24T01:19:53.700Z,1.29
2022-11-24T01:22:27.608Z,1.31
2022-11-24T01:24:59.570Z,1.34
2022-11-24T01:27:31.785Z,1.35
2022-11-24T01:30:03.816Z,1.33
2022-11-24T01:32:36.494Z,1.27
2022-11-24T01:35:09.954Z,1.23
2022-11-24T01:37:41.807Z,1.21
2022-11-24T01:40:15.002Z,1.18
2022-11-24T01:42:50.863Z,1.18
2022-11-24T01:45:45.987Z,1.19
2022-11-24T01:48:27.454Z,1.19
2022-11-24T01:51:08.568Z,1.18
2022-11-24T01:53:43.374Z,1.20
2022-11-24T01:56:16.237Z,1.23
2022-11-24T01:58:50.205Z,1.30
2022-11-24T02:01:22.359Z,1.34
2022-11-24T02:03:54.896Z,1.37
2022-11-24T02:06:30.419Z,1.39
2022-11-24T02:09:05.595Z,1.39
2022-11-24T02:11:40.152Z,1.37
2022-11-24T02:14:14.964Z,1.32
2022-11-24T02:16:49.989Z,1.25
2022-11-24T02:19:33.845Z,1.16
2022-11-24T02:22:10.202Z,1.10
2022-11-24T02:24:48.493Z,1.11
2022-11-24T02:27:21.434Z,1.13
2022-11-24T02:29:53.474Z,1.20
2022-11-24T02:32:26.075Z,1.27
2022-11-24T02:35:04.969Z,1.31
2022-11-24T02:37:36.877Z,1.35
2022-11-24T02:40:11.655Z,1.32
2022-11-24T02:42:47.675Z,1.33
2022-11-24T02:45:19.692Z,1.29
2022-11-24T02:47:51.575Z,1.29
2022-11-24T02:50:23.416Z,1.33
2022-11-24T02:52:55.342Z,1.39
2022-11-24T02:55:27.273Z,1.46
2022-11-24T02:57:59.707Z,1.53
2022-11-24T03:00:31.643Z,1.59
2022-11-24T03:03:03.560Z,1.63
2022-11-24T03:05:35.444Z,1.58
2022-11-24T03:08:07.752Z,1.51
2022-11-24T03:10:39.842Z,1.46
2022-11-24T03:13:12.323Z,1.38
2022-11-24T03:15:44.433Z,1.33
2022-11-24T03:18:16.435Z,1.28
2022-11-24T03:20:48.425Z,1.26
2022-11-24T03:23:20.308Z,1.29
2022-11-24T03:25:52.282Z,1.31
2022-11-24T03:28:24.189Z,1.34
2022-11-24T03:30:56.127Z,1.39
2022-11-24T03:33:28.009Z,1.42
2022-11-24T03:35:59.883Z,1.40
2022-11-24T03:38:32.228Z,1.35
2022-11-24T03:41:04.126Z,1.30
2022-11-24T03:43:40.439Z,1.26
2022-11-24T03:46:15.467Z,1.22
2022-11-24T03:48:47.416Z,1.21
2022-11-24T03:51:19.254Z,1.22
2022-11-24T03:53:51.110Z,1.24
2022-11-24T03:56:22.930Z,1.27
2022-11-24T03:58:54.762Z,1.31
2022-11-24T04:01:26.685Z,1.37
2022-11-24T04:03:58.805Z,1.40
2022-11-24T04:06:30.709Z,1.35
2022-11-24T04:09:04.001Z,1.27
2022-11-24T04:11:53.461Z,1.23
2022-11-24T04:14:25.393Z,1.21
2022-11-24T04:16:57.358Z,1.19
2022-11-24T04:19:29.195Z,1.20
2022-11-24T04:22:01.057Z,1.22
2022-11-24T04:24:33.170Z,1.22
2022-11-24T04:27:05.518Z,1.24
2022-11-24T04:29:37.448Z,1.23
2022-11-24T04:32:09.883Z,1.23
2022-11-24T04:34:42.048Z,1.27
2022-11-24T04:37:14.043Z,1.29
2022-11-24T04:39:46.537Z,1.29
2022-11-24T04:42:18.563Z,1.26
2022-11-24T04:44:50.987Z,1.23
2022-11-24T04:47:25.223Z,1.22
2022-11-24T04:49:57.808Z,1.18
2022-11-24T04:52:31.136Z,1.09
2022-11-24T04:55:03.962Z,1.01
2022-11-24T04:57:35.987Z,0.97
2022-11-24T05:00:11.724Z,0.96
2022-11-24T05:02:43.735Z,0.96
2022-11-24T05:05:15.886Z,0.98
2022-11-24T05:07:48.032Z,0.97
2022-11-24T05:10:38.739Z,1.01
2022-11-24T05:13:13.574Z,1.07
2022-11-24T05:15:45.510Z,1.12
2022-11-24T05:18:18.138Z,1.11
2022-11-24T05:20:50.224Z,1.07
2022-11-24T05:23:22.209Z,1.02
2022-11-24T05:25:55.247Z,0.98
2022-11-24T05:28:27.303Z,0.94
2022-11-24T05:31:02.968Z,0.90
2022-11-24T05:33:35.181Z,0.87
2022-11-24T05:36:08.837Z,0.82
2022-11-24T05:38:40.788Z,0.81
2022-11-24T05:41:12.638Z,0.80
2022-11-24T05:43:44.801Z,0.84
2022-11-24T05:46:16.814Z,0.89
2022-11-24T05:48:48.773Z,0.91
2022-11-24T05:51:20.743Z,0.95
2022-11-24T05:53:52.591Z,0.92
2022-11-24T05:56:25.267Z,0.92
2022-11-24T05:58:57.405Z,0.93
2022-11-24T06:01:29.369Z,0.95
2022-11-24T06:04:01.150Z,0.94
2022-11-24T06:06:33.036Z,0.94
2022-11-24T06:09:04.981Z,0.88
2022-11-24T06:11:37.064Z,0.83
2022-11-24T06:14:11.380Z,0.80
2022-11-24T06:16:43.835Z,0.79
2022-11-24T06:19:16.063Z,0.76
2022-11-24T06:21:48.126Z,0.78
2022-11-24T06:24:20.159Z,0.76
2022-11-24T06:26:52.261Z,0.75
2022-11-24T06:29:24.121Z,0.78
2022-11-24T06:31:55.904Z,0.85
2022-11-24T06:34:27.768Z,0.89
2022-11-24T06:36:59.830Z,0.90
2022-11-24T06:39:31.945Z,0.92
2022-11-24T06:42:04.694Z,0.93
2022-11-24T06:44:37.023Z,1.01
2022-11-24T06:47:09.124Z,1.02
2022-11-24T06:49:41.007Z,1.03
2022-11-24T06:52:13.018Z,1.03
2022-11-24T06:54:44.781Z,1.01
2022-11-24T06:57:16.665Z,0.99
2022-11-24T06:59:48.730Z,0.99
2022-11-24T07:02:22.999Z,0.99
2022-11-24T07:04:54.892Z,0.99
2022-11-24T07:07:26.873Z,1.01
2022-11-24T07:09:58.725Z,0.96
2022-11-24T07:12:34.537Z,0.98
2022-11-24T07:15:07.676Z,0.99
2022-11-24T07:17:40.408Z,0.96
2022-11-24T07:20:13.268Z,0.89
2022-11-24T07:22:45.101Z,0.85
2022-11-24T07:25:17.489Z,0.84
2022-11-24T07:27:50.357Z,0.89
2022-11-24T07:30:22.563Z,0.97
2022-11-24T07:32:59.502Z,1.06
2022-11-24T07:35:31.987Z,1.13
2022-11-24T07:38:03.908Z,1.15
2022-11-24T07:40:36.353Z,1.17
2022-11-24T07:43:08.260Z,1.23
2022-11-24T07:45:40.562Z,1.23
2022-11-24T07:48:12.368Z,1.29
2022-11-24T07:50:44.306Z,1.27
2022-11-24T07:53:16.764Z,1.18
2022-11-24T07:55:55.946Z,1.16
2022-11-24T07:58:32.394Z,1.20
2022-11-24T08:01:12.282Z,1.28
2022-11-24T08:03:44.856Z,1.36
2022-11-24T08:06:27.340Z,1.39
2022-11-24T08:09:02.742Z,1.46
2022-11-24T08:11:34.899Z,1.55
2022-11-24T08:14:07.334Z,1.64
2022-11-24T08:16:39.966Z,1.71
2022-11-24T08:19:12.402Z,1.76
2022-11-24T08:21:44.145Z,1.80
2022-11-24T08:24:17.052Z,1.85
2022-11-24T08:26:49.651Z,1.83
2022-11-24T08:29:21.824Z,1.77
2022-11-24T08:31:54.004Z,1.82
2022-11-24T08:34:28.212Z,1.89
2022-11-24T08:37:00.145Z,1.89
2022-11-24T08:39:32.501Z,1.94
2022-11-24T08:42:04.750Z,1.94
2022-11-24T08:44:37.209Z,1.93
2022-11-24T08:47:09.380Z,1.88
2022-11-24T08:49:42.019Z,1.90
2022-11-24T08:52:13.807Z,1.96
2022-11-24T08:54:46.928Z,2.03
2022-11-24T08:57:21.939Z,2.14
2022-11-24T08:59:53.992Z,2.23
2022-11-24T09:02:25.927Z,2.32
2022-11-24T09:04:57.910Z,2.38
2022-11-24T09:07:30.049Z,2.49
2022-11-24T09:10:02.021Z,2.61
2022-11-24T09:12:33.930Z,2.66
2022-11-24T09:15:06.128Z,2.70
2022-11-24T09:17:38.026Z,2.70
2022-11-24T09:20:11.056Z,2.66
2022-11-24T09:22:43.278Z,2.64
2022-11-24T09:25:15.096Z,2.66
2022-11-24T09:27:46.848Z,2.71
2022-11-24T09:30:19.074Z,2.78
2022-11-24T09:32:50.931Z,2.83
2022-11-24T09:35:22.925Z,2.84
2022-11-24T09:37:54.748Z,2.80
2022-11-24T09:40:26.848Z,2.75
2022-11-24T09:43:04.498Z,2.70
2022-11-24T09:46:05.482Z,2.68
2022-11-24T09:48:40.667Z,2.70
2022-11-24T09:51:15.910Z,2.71
2022-11-24T09:53:52.552Z,2.70
2022-11-24T09:56:26.061Z,2.73
2022-11-24T09:59:03.833Z,2.76
2022-11-24T10:01:38.206Z,2.78
2022-11-24T10:04:17.629Z,2.82
2022-11-24T10:06:59.349Z,2.83
2022-11-24T10:09:51.217Z,2.86
2022-11-24T10:12:35.649Z,2.91
2022-11-24T10:15:28.189Z,2.93
2022-11-24T10:18:16.730Z,2.96
2022-11-24T10:20:57.733Z,3.04
2022-11-24T10:23:51.554Z,3.07
2022-11-24T10:26:35.102Z,3.07
2022-11-24T10:29:21.231Z,3.12
2022-11-24T10:31:56.597Z,3.08
2022-11-24T10:34:35.608Z,3.04
2022-11-24T10:37:15.674Z,3.04
2022-11-24T10:40:00.219Z,2.98
2022-11-24T10:42:36.832Z,2.88
2022-11-24T10:45:15.118Z,2.81
2022-11-24T10:47:46.325Z,2.80
2022-11-24T10:50:24.394Z,2.80
2022-11-24T10:53:04.390Z,2.80
2022-11-24T10:56:06.984Z,2.76
2022-11-24T10:58:40.104Z,2.69
2022-11-24T11:01:29.857Z,2.75
2022-11-24T11:04:02.651Z,2.90
2022-11-24T11:06:36.447Z,3.02
2022-11-24T11:09:21.174Z,3.12
2022-11-24T11:11:56.922Z,3.18
2022-11-24T11:14:35.770Z,3.24
2022-11-24T11:17:33.822Z,3.28
2022-11-24T11:20:06.362Z,3.27
2022-11-24T11:22:40.040Z,3.27
2022-11-24T11:25:23.099Z,3.30
2022-11-24T11:28:19.095Z,3.31
2022-11-24T11:31:19.779Z,3.26
2022-11-24T11:34:06.229Z,3.16
2022-11-24T11:36:46.164Z,3.10
2022-11-24T11:39:33.266Z,3.08
2022-11-24T11:42:45.185Z,3.06
2022-11-24T11:45:16.396Z,3.13
2022-11-24T11:47:52.872Z,3.29
2022-11-24T11:50:31.501Z,3.46
2022-11-24T11:53:16.428Z,3.57
2022-11-24T11:55:58.714Z,3.63
2022-11-24T11:59:03.149Z,3.67
2022-11-24T12:01:55.028Z,3.70
2022-11-24T12:04:46.767Z,3.70
2022-11-24T12:07:43.463Z,3.72
2022-11-24T12:10:25.659Z,3.74
2022-11-24T12:13:23.183Z,3.69
2022-11-24T12:15:58.584Z,3.65
2022-11-24T12:18:57.156Z,3.55
2022-11-24T12:21:35.513Z,3.51
2022-11-24T12:24:19.016Z,3.51
2022-11-24T12:26:54.392Z,3.52
2022-11-24T12:29:46.200Z,3.53
2022-11-24T12:32:33.281Z,3.60
2022-11-24T12:35:16.598Z,3.61
2022-11-24T12:38:01.822Z,3.58
2022-11-24T12:40:47.182Z,3.50
2022-11-24T12:43:28.071Z,3.47
2022-11-24T12:46:05.578Z,3.45
2022-11-24T12:48:49.409Z,3.37
2022-11-24T12:51:26.978Z,3.32
2022-11-24T12:54:02.816Z,3.27
2022-11-24T12:56:42.623Z,3.21
2022-11-24T12:59:34.715Z,3.18
2022-11-24T13:02:21.418Z,3.22
2022-11-24T13:05:02.379Z,3.25
2022-11-24T13:07:45.662Z,3.25
2022-11-24T13:10:55.283Z,3.21
2022-11-24T13:13:50.160Z,3.18
2022-11-24T13:16:48.696Z,3.14
2022-11-24T13:19:20.724Z,3.08
2022-11-24T13:22:14.839Z,2.99
2022-11-24T13:24:47.243Z,2.90
2022-11-24T13:27:43.984Z,2.86
2022-11-24T13:30:49.614Z,2.88
2022-11-24T13:33:38.816Z,2.90
2022-11-24T13:36:34.131Z,2.94
2022-11-24T13:39:19.496Z,2.96
2022-11-24T13:42:41.476Z,2.97
2022-11-24T13:45:03.305Z,2.94
2022-11-24T13:47:41.115Z,2.91
2022-11-24T13:50:26.301Z,2.90
2022-11-24T13:53:09.504Z,2.86
2022-11-24T13:55:42.930Z,2.77
2022-11-24T13:58:35.553Z,2.70
2022-11-24T14:01:14.863Z,2.65
2022-11-24T14:07:07.929Z,2.65
2022-11-24T14:09:44.603Z,2.68
2022-11-24T14:12:20.420Z,2.68
2022-11-24T14:14:55.744Z,2.70
2022-11-24T14:17:29.027Z,2.78
2022-11-24T14:20:01.108Z,2.86
2022-11-24T14:22:40.342Z,2.90
2022-11-24T14:25:32.104Z,2.92
2022-11-24T14:28:04.067Z,2.94
2022-11-24T14:30:35.933Z,2.94
2022-11-24T14:33:13.820Z,2.91
2022-11-24T14:35:48.505Z,2.89
2022-11-24T14:38:20.433Z,2.88
2022-11-24T14:40:54.150Z,2.87
2022-11-24T14:43:29.871Z,2.86
2022-11-24T14:46:04.587Z,2.92
2022-11-24T14:48:39.812Z,2.97
2022-11-24T14:51:20.910Z,2.94
2022-11-24T14:53:56.481Z,2.85
2022-11-24T14:56:30.110Z,2.73
2022-11-24T14:59:02.176Z,2.60
2022-11-24T15:01:36.299Z,2.46
2022-11-24T15:04:38.818Z,2.28
2022-11-24T15:07:20.011Z,2.15
2022-11-24T15:09:54.185Z,2.03
2022-11-24T15:12:30.789Z,1.94
2022-11-24T15:15:05.255Z,1.86
2022-11-24T15:17:37.218Z,1.81
2022-11-24T15:20:18.107Z,1.79
2022-11-24T15:22:52.454Z,1.75
2022-11-24T15:25:33.782Z,1.68
2022-11-24T15:28:05.663Z,1.59
2022-11-24T15:30:38.221Z,1.51
2022-11-24T15:33:16.750Z,1.44
2022-11-24T15:35:48.835Z,1.39
2022-11-24T15:38:20.756Z,1.34
2022-11-24T15:40:55.045Z,1.33
2022-11-24T15:43:32.598Z,1.34
2022-11-24T15:46:05.755Z,1.35
2022-11-24T15:48:37.923Z,1.36
2022-11-24T15:51:15.857Z,1.34
2022-11-24T15:53:51.170Z,1.29
2022-11-24T15:56:27.359Z,1.21
2022-11-24T15:58:59.786Z,1.09
2022-11-24T16:01:33.964Z,0.97
2022-11-24T16:04:06.230Z,0.90
2022-11-24T16:06:38.190Z,0.89
2022-11-24T16:09:16.083Z,0.90
2022-11-24T16:11:48.387Z,0.92
2022-11-24T16:14:20.258Z,0.94
2022-11-24T16:16:52.431Z,0.96
2022-11-24T16:19:24.423Z,0.97
2022-11-24T16:21:56.332Z,0.96
2022-11-24T16:24:28.160Z,0.94
2022-11-24T16:26:59.984Z,0.91
2022-11-24T16:29:36.893Z,0.85
2022-11-24T16:32:08.793Z,0.78
2022-11-24T16:34:40.619Z,0.74
2022-11-24T16:37:12.898Z,0.74
2022-11-24T16:39:50.010Z,0.77
2022-11-24T16:42:22.280Z,0.81
2022-11-24T16:44:54.382Z,0.85
2022-11-24T16:47:26.311Z,0.84
2022-11-24T16:49:58.137Z,0.82
2022-11-24T16:52:30.145Z,0.76
2022-11-24T16:55:02.647Z,0.72
2022-11-24T16:57:35.371Z,0.68
2022-11-24T17:00:09.876Z,0.68
2022-11-24T17:02:41.994Z,0.68
2022-11-24T17:05:14.127Z,0.69
2022-11-24T17:07:46.050Z,0.68
2022-11-24T17:10:18.940Z,0.67
2022-11-24T17:12:50.820Z,0.64
2022-11-24T17:15:32.955Z,0.59
2022-11-24T17:18:24.185Z,0.49
2022-11-24T17:21:03.175Z,0.41
2022-11-24T17:23:38.153Z,0.37
2022-11-24T17:26:11.793Z,0.36
2022-11-24T17:28:44.262Z,0.41
2022-11-24T17:31:21.308Z,0.45
2022-11-24T17:33:54.482Z,0.48
2022-11-24T17:36:26.812Z,0.50
2022-11-24T17:39:01.502Z,0.51
2022-11-24T17:41:34.681Z,0.52
2022-11-24T17:44:08.653Z,0.52
2022-11-24T17:46:40.863Z,0.50
2022-11-24T17:49:13.324Z,0.47
2022-11-24T17:51:46.416Z,0.43
2022-11-24T17:57:12.198Z,0.41
2022-11-24T17:59:44.024Z,0.43
2022-11-24T18:02:16.206Z,0.48
2022-11-24T18:04:48.823Z,0.53
2022-11-24T18:07:20.737Z,0.61
2022-11-24T18:09:52.579Z,0.61
2022-11-24T18:12:24.397Z,0.57
2022-11-24T18:14:56.314Z,0.53
2022-11-24T18:17:29.171Z,0.48
2022-11-24T18:20:01.233Z,0.42
2022-11-24T18:22:57.773Z,0.34
2022-11-24T18:25:25.161Z,0.28
2022-11-24T18:27:57.359Z,0.31
2022-11-24T18:30:29.334Z,0.33
2022-11-24T18:33:02.146Z,0.33
2022-11-24T18:35:34.066Z,0.34
2022-11-24T18:38:05.943Z,0.37
2022-11-24T18:40:41.514Z,0.38
2022-11-24T18:43:13.637Z,0.41
2022-11-24T18:45:46.625Z,0.42
2022-11-24T18:48:18.532Z,0.38
2022-11-24T18:50:53.664Z,0.29
2022-11-24T18:53:26.840Z,0.20
2022-11-24T18:56:00.832Z,0.12
2022-11-24T18:58:34.129Z,0.05
2022-11-24T19:01:10.896Z,-0.05
2022-11-24T19:03:48.695Z,-0.10
2022-11-24T19:06:24.170Z,-0.14
2022-11-24T19:08:56.969Z,-0.11
2022-11-24T19:11:32.432Z,-0.12
2022-11-24T19:14:05.550Z,-0.12
2022-11-24T19:16:38.310Z,-0.06
2022-11-24T19:19:11.759Z,0.03
2022-11-24T19:21:43.725Z,0.05
2022-11-24T19:24:15.582Z,-0.00
2022-11-24T19:26:47.696Z,-0.08
2022-11-24T19:29:19.673Z,-0.19
2022-11-24T19:31:51.577Z,-0.25
2022-11-24T19:34:23.575Z,-0.28
2022-11-24T19:36:55.387Z,-0.27
2022-11-24T19:39:27.493Z,-0.24
2022-11-24T19:42:00.040Z,-0.23
2022-11-24T19:44:31.954Z,-0.22
2022-11-24T19:47:03.775Z,-0.16
2022-11-24T19:49:35.637Z,-0.15
2022-11-24T19:52:07.626Z,-0.11
2022-11-24T19:54:39.423Z,-0.06
2022-11-24T19:57:11.354Z,-0.02
2022-11-24T19:59:43.447Z,0.01
2022-11-24T20:02:15.364Z,-0.04
2022-11-24T20:04:47.247Z,-0.08
2022-11-24T20:07:20.639Z,-0.13
2022-11-24T20:09:52.599Z,-0.18
2022-11-24T20:12:24.457Z,-0.24
2022-11-24T20:14:56.711Z,-0.24
2022-11-24T20:17:30.991Z,-0.22
2022-11-24T20:20:02.991Z,-0.23
2022-11-24T20:22:34.856Z,-0.21
2022-11-24T20:25:08.128Z,-0.16
2022-11-24T20:27:39.920Z,-0.15
2022-11-24T20:30:13.877Z,-0.17
2022-11-24T20:32:45.817Z,-0.21
2022-11-24T20:35:18.516Z,-0.25
2022-11-24T20:37:50.504Z,-0.33
2022-11-24T20:40:22.354Z,-0.43
2022-11-24T20:42:54.172Z,-0.51
2022-11-24T20:45:27.576Z,-0.64
2022-11-24T20:47:59.605Z,-0.74
2022-11-24T20:50:31.381Z,-0.81
2022-11-24T20:53:03.258Z,-0.87
2022-11-24T20:55:35.051Z,-0.92
2022-11-24T20:58:07.516Z,-0.95
2022-11-24T21:00:39.466Z,-0.95
2022-11-24T21:03:11.279Z,-0.93
2022-11-24T21:05:43.169Z,-0.89
2022-11-24T21:08:15.036Z,-0.85
2022-11-24T21:10:56.304Z,-0.82
2022-11-24T21:13:28.793Z,-0.81
2022-11-24T21:16:00.773Z,-0.81
2022-11-24T21:18:34.803Z,-0.85
2022-11-24T21:21:07.049Z,-0.89
2022-11-24T21:23:39.218Z,-0.94
2022-11-24T21:26:16.645Z,-0.98
2022-11-24T21:28:49.995Z,-0.99
2022-11-24T21:31:23.061Z,-0.98
2022-11-24T21:33:56.121Z,-0.94
2022-11-24T21:36:28.376Z,-0.90
2022-11-24T21:39:01.815Z,-0.84
2022-11-24T21:41:34.992Z,-0.77
2022-11-24T21:44:07.352Z,-0.74
2022-11-24T21:46:44.997Z,-0.73
2022-11-24T21:49:19.842Z,-0.71
2022-11-24T21:51:55.461Z,-0.71
2022-11-24T21:54:27.807Z,-0.72
2022-11-24T21:56:59.620Z,-0.75
2022-11-24T21:59:31.895Z,-0.80
2022-11-24T22:02:05.846Z,-0.85
2022-11-24T22:04:40.626Z,-0.86
2022-11-24T22:07:12.469Z,-0.84
2022-11-24T22:09:46.388Z,-0.78
2022-11-24T22:12:18.665Z,-0.72
2022-11-24T22:14:50.466Z,-0.67
2022-11-24T22:17:22.598Z,-0.62
2022-11-24T22:19:54.350Z,-0.56
2022-11-24T22:22:26.116Z,-0.51
2022-11-24T22:24:58.252Z,-0.48
2022-11-24T22:27:30.012Z,-0.50
2022-11-24T22:30:02.697Z,-0.57
2022-11-24T22:32:34.547Z,-0.63
2022-11-24T22:35:07.792Z,-0.65
2022-11-24T22:37:40.147Z,-0.64
2022-11-24T22:40:13.764Z,-0.61
2022-11-24T22:42:45.748Z,-0.56
2022-11-24T22:45:17.774Z,-0.51
2022-11-24T22:47:49.707Z,-0.49
2022-11-24T22:50:21.621Z,-0.50
2022-11-24T22:52:53.923Z,-0.52
2022-11-24T22:55:25.682Z,-0.49
2022-11-24T22:57:57.685Z,-0.46
2022-11-24T23:00:29.426Z,-0.42
2022-11-24T23:03:01.246Z,-0.40
2022-11-24T23:05:35.102Z,-0.42
2022-11-24T23:08:07.399Z,-0.43
2022-11-24T23:10:39.869Z,-0.48
2022-11-24T23:13:11.683Z,-0.48
2022-11-24T23:15:43.464Z,-0.46
2022-11-24T23:18:15.261Z,-0.44
2022-11-24T23:20:47.389Z,-0.41
2022-11-24T23:23:19.369Z,-0.41
2022-11-24T23:25:51.365Z,-0.40
2022-11-24T23:28:23.136Z,-0.31
2022-11-24T23:30:54.964Z,-0.23
2022-11-24T23:33:26.722Z,-0.18
2022-11-24T23:36:00.394Z,-0.18
2022-11-24T23:38:33.442Z,-0.18
2022-11-24T23:41:07.276Z,-0.17
2022-11-24T23:43:40.332Z,-0.18
2022-11-24T23:46:14.814Z,-0.24
2022-11-24T23:48:47.328Z,-0.30
2022-11-24T23:51:20.623Z,-0.33
2022-11-24T23:53:53.043Z,-0.34
2022-11-24T23:56:26.636Z,-0.33
2022-11-24T23:58:58.372Z,-0.31
